sensor_id;sensor_type;location;lat;lon;timestamp;P1;durP1;ratioP1;P2;durP2;ratioP2
64597;SDS011;51004;54.692;9.332;2023-02-28T00:01:33;8.27;;;4.35;;
64597;SDS011;51004;54.692;9.332;2023-02-28T00:03:59;7.50;;;3.20;;
64597;SDS011;51004;54.692;9.332;2023-02-28T00:06:25;5.35;;;3.35;;
64597;SDS011;51004;54.692;9.332;2023-02-28T00:08:51;6.13;;;3.08;;
64597;SDS011;51004;54.692;9.332;2023-02-28T00:11:17;5.07;;;3.03;;
64597;SDS011;51004;54.692;9.332;2023-02-28T00:13:44;7.22;;;3.28;;
64597;SDS011;51004;54.692;9.332;2023-02-28T00:16:15;4.07;;;3.10;;
64597;SDS011;51004;54.692;9.332;2023-02-28T00:18:41;5.18;;;3.55;;
64597;SDS011;51004;54.692;9.332;2023-02-28T00:21:07;4.88;;;3.50;;
64597;SDS011;51004;54.692;9.332;2023-02-28T00:23:34;5.38;;;3.17;;
64597;SDS011;51004;54.692;9.332;2023-02-28T00:26:00;5.63;;;3.30;;
64597;SDS011;51004;54.692;9.332;2023-02-28T00:28:26;5.05;;;3.50;;
64597;SDS011;51004;54.692;9.332;2023-02-28T00:30:52;4.97;;;3.22;;
64597;SDS011;51004;54.692;9.332;2023-02-28T00:33:18;7.03;;;3.72;;
64597;SDS011;51004;54.692;9.332;2023-02-28T00:35:43;7.90;;;3.28;;
64597;SDS011;51004;54.692;9.332;2023-02-28T00:38:11;5.60;;;3.33;;
64597;SDS011;51004;54.692;9.332;2023-02-28T00:40:37;5.95;;;3.65;;
64597;SDS011;51004;54.692;9.332;2023-02-28T00:43:03;7.10;;;3.47;;
64597;SDS011;51004;54.692;9.332;2023-02-28T00:45:29;4.82;;;3.25;;
64597;SDS011;51004;54.692;9.332;2023-02-28T00:47:55;6.85;;;3.92;;
64597;SDS011;51004;54.692;9.332;2023-02-28T00:50:21;4.40;;;3.28;;
64597;SDS011;51004;54.692;9.332;2023-02-28T00:52:47;5.97;;;3.50;;
64597;SDS011;51004;54.692;9.332;2023-02-28T00:55:13;5.63;;;3.65;;
64597;SDS011;51004;54.692;9.332;2023-02-28T00:57:39;6.85;;;3.85;;
64597;SDS011;51004;54.692;9.332;2023-02-28T01:00:06;7.80;;;3.13;;
64597;SDS011;51004;54.692;9.332;2023-02-28T01:02:32;11.88;;;3.78;;
64597;SDS011;51004;54.692;9.332;2023-02-28T01:04:58;4.40;;;3.58;;
64597;SDS011;51004;54.692;9.332;2023-02-28T01:07:24;5.22;;;3.63;;
64597;SDS011;51004;54.692;9.332;2023-02-28T01:09:50;5.60;;;4.15;;
64597;SDS011;51004;54.692;9.332;2023-02-28T01:12:16;6.57;;;4.15;;
64597;SDS011;51004;54.692;9.332;2023-02-28T01:14:42;6.38;;;4.10;;
64597;SDS011;51004;54.692;9.332;2023-02-28T01:17:08;6.43;;;4.10;;
64597;SDS011;51004;54.692;9.332;2023-02-28T01:19:34;5.90;;;4.28;;
64597;SDS011;51004;54.692;9.332;2023-02-28T01:22:01;7.28;;;4.32;;
64597;SDS011;51004;54.692;9.332;2023-02-28T01:24:27;6.05;;;4.60;;
64597;SDS011;51004;54.692;9.332;2023-02-28T01:26:53;5.97;;;4.20;;
64597;SDS011;51004;54.692;9.332;2023-02-28T01:29:19;7.00;;;4.40;;
64597;SDS011;51004;54.692;9.332;2023-02-28T01:31:45;8.15;;;4.60;;
64597;SDS011;51004;54.692;9.332;2023-02-28T01:34:11;7.30;;;4.18;;
64597;SDS011;51004;54.692;9.332;2023-02-28T01:36:37;7.47;;;4.55;;
64597;SDS011;51004;54.692;9.332;2023-02-28T01:39:03;6.22;;;4.25;;
64597;SDS011;51004;54.692;9.332;2023-02-28T01:41:30;8.57;;;4.43;;
64597;SDS011;51004;54.692;9.332;2023-02-28T01:46:28;7.78;;;4.03;;
64597;SDS011;51004;54.692;9.332;2023-02-28T01:48:57;5.53;;;3.72;;
64597;SDS011;51004;54.692;9.332;2023-02-28T01:51:29;7.47;;;3.80;;
64597;SDS011;51004;54.692;9.332;2023-02-28T01:53:58;5.00;;;3.38;;
64597;SDS011;51004;54.692;9.332;2023-02-28T01:56:27;6.25;;;3.80;;
64597;SDS011;51004;54.692;9.332;2023-02-28T01:58:55;7.85;;;3.50;;
64597;SDS011;51004;54.692;9.332;2023-02-28T02:01:21;6.22;;;3.70;;
64597;SDS011;51004;54.692;9.332;2023-02-28T02:03:49;5.38;;;3.65;;
64597;SDS011;51004;54.692;9.332;2023-02-28T02:06:20;6.47;;;3.70;;
64597;SDS011;51004;54.692;9.332;2023-02-28T02:08:45;5.78;;;3.40;;
64597;SDS011;51004;54.692;9.332;2023-02-28T02:11:11;4.93;;;3.65;;
64597;SDS011;51004;54.692;9.332;2023-02-28T02:13:50;6.28;;;3.40;;
64597;SDS011;51004;54.692;9.332;2023-02-28T02:16:28;7.65;;;3.72;;
64597;SDS011;51004;54.692;9.332;2023-02-28T02:18:59;5.85;;;3.70;;
64597;SDS011;51004;54.692;9.332;2023-02-28T02:21:47;5.18;;;3.60;;
64597;SDS011;51004;54.692;9.332;2023-02-28T02:27:06;7.57;;;3.92;;
64597;SDS011;51004;54.692;9.332;2023-02-28T02:35:13;6.80;;;4.25;;
64597;SDS011;51004;54.692;9.332;2023-02-28T02:37:56;6.25;;;4.18;;
64597;SDS011;51004;54.692;9.332;2023-02-28T02:40:28;8.00;;;4.13;;
64597;SDS011;51004;54.692;9.332;2023-02-28T02:43:04;6.32;;;4.10;;
64597;SDS011;51004;54.692;9.332;2023-02-28T02:48:18;5.68;;;3.92;;
64597;SDS011;51004;54.692;9.332;2023-02-28T02:50:46;6.30;;;3.90;;
64597;SDS011;51004;54.692;9.332;2023-02-28T02:53:14;5.13;;;3.90;;
64597;SDS011;51004;54.692;9.332;2023-02-28T02:55:42;8.35;;;4.35;;
64597;SDS011;51004;54.692;9.332;2023-02-28T02:58:16;5.97;;;4.53;;
64597;SDS011;51004;54.692;9.332;2023-02-28T03:00:48;5.82;;;4.35;;
64597;SDS011;51004;54.692;9.332;2023-02-28T03:03:16;5.35;;;4.00;;
64597;SDS011;51004;54.692;9.332;2023-02-28T03:05:46;6.22;;;4.43;;
64597;SDS011;51004;54.692;9.332;2023-02-28T03:08:13;6.25;;;3.88;;
64597;SDS011;51004;54.692;9.332;2023-02-28T03:15:45;7.20;;;4.25;;
64597;SDS011;51004;54.692;9.332;2023-02-28T03:18:16;7.55;;;3.70;;
64597;SDS011;51004;54.692;9.332;2023-02-28T03:20:49;5.43;;;4.10;;
64597;SDS011;51004;54.692;9.332;2023-02-28T03:23:21;7.22;;;4.18;;
64597;SDS011;51004;54.692;9.332;2023-02-28T03:25:54;6.00;;;4.43;;
64597;SDS011;51004;54.692;9.332;2023-02-28T03:28:30;9.52;;;4.55;;
64597;SDS011;51004;54.692;9.332;2023-02-28T03:30:59;5.88;;;4.55;;
64597;SDS011;51004;54.692;9.332;2023-02-28T03:35:56;5.63;;;4.40;;
64597;SDS011;51004;54.692;9.332;2023-02-28T03:38:26;7.07;;;4.53;;
64597;SDS011;51004;54.692;9.332;2023-02-28T03:41:01;7.55;;;4.88;;
64597;SDS011;51004;54.692;9.332;2023-02-28T03:43:31;9.07;;;5.07;;
64597;SDS011;51004;54.692;9.332;2023-02-28T03:46:00;7.80;;;4.80;;
64597;SDS011;51004;54.692;9.332;2023-02-28T03:48:30;8.55;;;5.00;;
64597;SDS011;51004;54.692;9.332;2023-02-28T03:50:57;8.05;;;4.78;;
64597;SDS011;51004;54.692;9.332;2023-02-28T03:55:58;7.95;;;4.82;;
64597;SDS011;51004;54.692;9.332;2023-02-28T03:58:42;6.20;;;5.00;;
64597;SDS011;51004;54.692;9.332;2023-02-28T04:01:14;6.95;;;4.32;;
64597;SDS011;51004;54.692;9.332;2023-02-28T04:03:41;6.68;;;4.97;;
64597;SDS011;51004;54.692;9.332;2023-02-28T04:06:07;7.75;;;5.30;;
64597;SDS011;51004;54.692;9.332;2023-02-28T04:08:34;8.05;;;5.22;;
64597;SDS011;51004;54.692;9.332;2023-02-28T04:11:20;9.27;;;5.50;;
64597;SDS011;51004;54.692;9.332;2023-02-28T04:13:46;9.02;;;5.75;;
64597;SDS011;51004;54.692;9.332;2023-02-28T04:16:13;7.22;;;5.15;;
64597;SDS011;51004;54.692;9.332;2023-02-28T04:18:39;9.13;;;5.70;;
64597;SDS011;51004;54.692;9.332;2023-02-28T04:21:05;8.10;;;5.57;;
64597;SDS011;51004;54.692;9.332;2023-02-28T04:23:32;7.30;;;5.32;;
64597;SDS011;51004;54.692;9.332;2023-02-28T04:25:58;10.30;;;6.25;;
64597;SDS011;51004;54.692;9.332;2023-02-28T04:28:24;10.13;;;6.70;;
64597;SDS011;51004;54.692;9.332;2023-02-28T04:30:56;9.95;;;5.93;;
64597;SDS011;51004;54.692;9.332;2023-02-28T04:33:22;9.75;;;6.40;;
64597;SDS011;51004;54.692;9.332;2023-02-28T04:35:49;10.05;;;6.50;;
64597;SDS011;51004;54.692;9.332;2023-02-28T04:38:23;9.13;;;5.97;;
64597;SDS011;51004;54.692;9.332;2023-02-28T04:40:49;10.80;;;6.13;;
64597;SDS011;51004;54.692;9.332;2023-02-28T04:43:15;9.98;;;6.15;;
64597;SDS011;51004;54.692;9.332;2023-02-28T04:45:40;8.45;;;5.90;;
64597;SDS011;51004;54.692;9.332;2023-02-28T04:48:06;11.25;;;5.75;;
64597;SDS011;51004;54.692;9.332;2023-02-28T04:50:32;11.77;;;5.70;;
64597;SDS011;51004;54.692;9.332;2023-02-28T04:52:58;11.77;;;6.50;;
64597;SDS011;51004;54.692;9.332;2023-02-28T04:55:24;9.52;;;5.65;;
64597;SDS011;51004;54.692;9.332;2023-02-28T04:57:50;8.40;;;5.68;;
64597;SDS011;51004;54.692;9.332;2023-02-28T05:00:16;7.90;;;4.90;;
64597;SDS011;51004;54.692;9.332;2023-02-28T05:02:42;9.35;;;5.45;;
64597;SDS011;51004;54.692;9.332;2023-02-28T05:05:08;7.28;;;5.45;;
64597;SDS011;51004;54.692;9.332;2023-02-28T05:07:34;11.95;;;6.45;;
64597;SDS011;51004;54.692;9.332;2023-02-28T05:10:00;13.77;;;5.20;;
64597;SDS011;51004;54.692;9.332;2023-02-28T05:12:26;9.57;;;5.53;;
64597;SDS011;51004;54.692;9.332;2023-02-28T05:14:52;8.55;;;5.72;;
64597;SDS011;51004;54.692;9.332;2023-02-28T05:17:18;7.88;;;5.10;;
64597;SDS011;51004;54.692;9.332;2023-02-28T05:19:44;7.80;;;5.40;;
64597;SDS011;51004;54.692;9.332;2023-02-28T05:22:13;9.23;;;5.47;;
64597;SDS011;51004;54.692;9.332;2023-02-28T05:24:40;10.10;;;6.03;;
64597;SDS011;51004;54.692;9.332;2023-02-28T05:27:07;10.00;;;5.40;;
64597;SDS011;51004;54.692;9.332;2023-02-28T05:29:33;8.18;;;5.22;;
64597;SDS011;51004;54.692;9.332;2023-02-28T05:32:09;10.68;;;5.30;;
64597;SDS011;51004;54.692;9.332;2023-02-28T05:34:35;8.30;;;5.35;;
64597;SDS011;51004;54.692;9.332;2023-02-28T05:37:01;9.40;;;5.68;;
64597;SDS011;51004;54.692;9.332;2023-02-28T05:39:27;8.93;;;5.40;;
64597;SDS011;51004;54.692;9.332;2023-02-28T05:41:53;7.78;;;5.35;;
64597;SDS011;51004;54.692;9.332;2023-02-28T05:44:19;8.07;;;5.35;;
64597;SDS011;51004;54.692;9.332;2023-02-28T05:46:45;9.90;;;5.60;;
64597;SDS011;51004;54.692;9.332;2023-02-28T05:49:11;8.98;;;5.18;;
64597;SDS011;51004;54.692;9.332;2023-02-28T05:51:37;8.63;;;4.95;;
64597;SDS011;51004;54.692;9.332;2023-02-28T05:54:04;6.40;;;5.07;;
64597;SDS011;51004;54.692;9.332;2023-02-28T05:56:30;8.45;;;4.90;;
64597;SDS011;51004;54.692;9.332;2023-02-28T05:58:57;7.10;;;5.50;;
64597;SDS011;51004;54.692;9.332;2023-02-28T06:01:24;11.32;;;5.68;;
64597;SDS011;51004;54.692;9.332;2023-02-28T06:03:55;7.85;;;5.68;;
64597;SDS011;51004;54.692;9.332;2023-02-28T06:06:21;10.55;;;5.63;;
64597;SDS011;51004;54.692;9.332;2023-02-28T06:08:47;10.82;;;6.03;;
64597;SDS011;51004;54.692;9.332;2023-02-28T06:11:13;7.93;;;5.72;;
64597;SDS011;51004;54.692;9.332;2023-02-28T06:13:39;9.05;;;5.60;;
64597;SDS011;51004;54.692;9.332;2023-02-28T06:16:05;12.52;;;7.00;;
64597;SDS011;51004;54.692;9.332;2023-02-28T06:18:32;9.98;;;5.95;;
64597;SDS011;51004;54.692;9.332;2023-02-28T06:20:58;9.13;;;5.80;;
64597;SDS011;51004;54.692;9.332;2023-02-28T06:23:24;10.18;;;6.35;;
64597;SDS011;51004;54.692;9.332;2023-02-28T06:25:50;9.30;;;6.43;;
64597;SDS011;51004;54.692;9.332;2023-02-28T06:28:17;9.55;;;6.75;;
64597;SDS011;51004;54.692;9.332;2023-02-28T06:30:43;11.75;;;7.10;;
64597;SDS011;51004;54.692;9.332;2023-02-28T06:33:09;10.38;;;6.60;;
64597;SDS011;51004;54.692;9.332;2023-02-28T06:35:35;9.23;;;6.72;;
64597;SDS011;51004;54.692;9.332;2023-02-28T06:38:01;12.57;;;7.25;;
64597;SDS011;51004;54.692;9.332;2023-02-28T06:40:28;8.85;;;6.40;;
64597;SDS011;51004;54.692;9.332;2023-02-28T06:42:56;12.85;;;7.90;;
64597;SDS011;51004;54.692;9.332;2023-02-28T06:45:22;9.60;;;7.28;;
64597;SDS011;51004;54.692;9.332;2023-02-28T06:47:51;11.00;;;6.60;;
64597;SDS011;51004;54.692;9.332;2023-02-28T06:50:17;9.15;;;5.85;;
64597;SDS011;51004;54.692;9.332;2023-02-28T06:52:45;9.45;;;7.13;;
64597;SDS011;51004;54.692;9.332;2023-02-28T06:55:11;11.32;;;7.15;;
64597;SDS011;51004;54.692;9.332;2023-02-28T06:57:37;9.98;;;7.18;;
64597;SDS011;51004;54.692;9.332;2023-02-28T07:00:07;10.35;;;7.07;;
64597;SDS011;51004;54.692;9.332;2023-02-28T07:02:34;10.88;;;7.88;;
64597;SDS011;51004;54.692;9.332;2023-02-28T07:05:00;13.63;;;7.28;;
64597;SDS011;51004;54.692;9.332;2023-02-28T07:07:26;9.32;;;7.28;;
64597;SDS011;51004;54.692;9.332;2023-02-28T07:09:52;10.38;;;7.35;;
64597;SDS011;51004;54.692;9.332;2023-02-28T07:12:18;11.73;;;7.60;;
64597;SDS011;51004;54.692;9.332;2023-02-28T07:14:44;10.25;;;6.70;;
64597;SDS011;51004;54.692;9.332;2023-02-28T07:17:10;10.50;;;7.30;;
64597;SDS011;51004;54.692;9.332;2023-02-28T07:19:37;9.60;;;7.38;;
64597;SDS011;51004;54.692;9.332;2023-02-28T07:22:03;11.05;;;7.68;;
64597;SDS011;51004;54.692;9.332;2023-02-28T07:24:29;12.95;;;8.07;;
64597;SDS011;51004;54.692;9.332;2023-02-28T07:26:55;15.38;;;7.45;;
64597;SDS011;51004;54.692;9.332;2023-02-28T07:29:21;12.57;;;8.13;;
64597;SDS011;51004;54.692;9.332;2023-02-28T07:31:47;13.75;;;8.32;;
64597;SDS011;51004;54.692;9.332;2023-02-28T07:34:15;10.27;;;8.18;;
64597;SDS011;51004;54.692;9.332;2023-02-28T07:36:41;12.23;;;8.60;;
64597;SDS011;51004;54.692;9.332;2023-02-28T07:39:07;16.00;;;10.30;;
64597;SDS011;51004;54.692;9.332;2023-02-28T07:41:34;21.10;;;12.35;;
64597;SDS011;51004;54.692;9.332;2023-02-28T07:44:04;14.50;;;10.98;;
64597;SDS011;51004;54.692;9.332;2023-02-28T07:46:30;18.92;;;12.45;;
64597;SDS011;51004;54.692;9.332;2023-02-28T07:49:00;19.52;;;13.02;;
64597;SDS011;51004;54.692;9.332;2023-02-28T07:51:27;21.15;;;14.63;;
64597;SDS011;51004;54.692;9.332;2023-02-28T07:53:53;20.58;;;13.57;;
64597;SDS011;51004;54.692;9.332;2023-02-28T07:56:19;21.20;;;14.70;;
64597;SDS011;51004;54.692;9.332;2023-02-28T07:58:45;20.58;;;13.25;;
64597;SDS011;51004;54.692;9.332;2023-02-28T08:01:11;22.15;;;14.50;;
64597;SDS011;51004;54.692;9.332;2023-02-28T08:03:38;24.42;;;16.23;;
64597;SDS011;51004;54.692;9.332;2023-02-28T08:06:04;26.77;;;15.98;;
64597;SDS011;51004;54.692;9.332;2023-02-28T08:08:30;25.02;;;16.42;;
64597;SDS011;51004;54.692;9.332;2023-02-28T08:11:00;33.05;;;18.58;;
64597;SDS011;51004;54.692;9.332;2023-02-28T08:13:27;33.47;;;19.80;;
64597;SDS011;51004;54.692;9.332;2023-02-28T08:15:53;29.48;;;18.42;;
64597;SDS011;51004;54.692;9.332;2023-02-28T08:18:20;25.40;;;16.98;;
64597;SDS011;51004;54.692;9.332;2023-02-28T08:20:46;25.70;;;16.27;;
64597;SDS011;51004;54.692;9.332;2023-02-28T08:23:12;27.20;;;16.88;;
64597;SDS011;51004;54.692;9.332;2023-02-28T08:25:37;28.08;;;18.10;;
64597;SDS011;51004;54.692;9.332;2023-02-28T08:28:04;33.25;;;18.90;;
64597;SDS011;51004;54.692;9.332;2023-02-28T08:30:29;29.73;;;19.17;;
64597;SDS011;51004;54.692;9.332;2023-02-28T08:32:55;32.75;;;18.90;;
64597;SDS011;51004;54.692;9.332;2023-02-28T08:35:21;27.40;;;16.70;;
64597;SDS011;51004;54.692;9.332;2023-02-28T08:37:48;29.10;;;17.23;;
64597;SDS011;51004;54.692;9.332;2023-02-28T08:40:14;30.52;;;19.15;;
64597;SDS011;51004;54.692;9.332;2023-02-28T08:42:47;32.00;;;19.00;;
64597;SDS011;51004;54.692;9.332;2023-02-28T08:45:13;37.00;;;20.58;;
64597;SDS011;51004;54.692;9.332;2023-02-28T08:47:40;33.03;;;19.98;;
64597;SDS011;51004;54.692;9.332;2023-02-28T08:50:06;38.15;;;21.63;;
64597;SDS011;51004;54.692;9.332;2023-02-28T08:52:32;38.88;;;19.30;;
64597;SDS011;51004;54.692;9.332;2023-02-28T08:54:58;40.92;;;22.20;;
64597;SDS011;51004;54.692;9.332;2023-02-28T08:57:24;40.35;;;22.15;;
64597;SDS011;51004;54.692;9.332;2023-02-28T08:59:51;41.63;;;20.00;;
64597;SDS011;51004;54.692;9.332;2023-02-28T09:02:17;39.85;;;21.27;;
64597;SDS011;51004;54.692;9.332;2023-02-28T09:04:43;36.08;;;20.02;;
64597;SDS011;51004;54.692;9.332;2023-02-28T09:07:12;46.22;;;21.05;;
64597;SDS011;51004;54.692;9.332;2023-02-28T09:09:38;39.88;;;21.05;;
64597;SDS011;51004;54.692;9.332;2023-02-28T09:12:18;33.35;;;20.95;;
64597;SDS011;51004;54.692;9.332;2023-02-28T09:14:44;33.72;;;19.05;;
64597;SDS011;51004;54.692;9.332;2023-02-28T09:17:10;34.47;;;19.23;;
64597;SDS011;51004;54.692;9.332;2023-02-28T09:19:36;36.83;;;18.52;;
64597;SDS011;51004;54.692;9.332;2023-02-28T09:22:02;31.45;;;17.55;;
64597;SDS011;51004;54.692;9.332;2023-02-28T09:24:27;29.60;;;18.27;;
64597;SDS011;51004;54.692;9.332;2023-02-28T09:26:53;30.45;;;17.05;;
64597;SDS011;51004;54.692;9.332;2023-02-28T09:29:19;32.22;;;16.52;;
64597;SDS011;51004;54.692;9.332;2023-02-28T09:31:45;33.53;;;18.20;;
64597;SDS011;51004;54.692;9.332;2023-02-28T09:34:12;28.52;;;17.42;;
64597;SDS011;51004;54.692;9.332;2023-02-28T09:36:38;26.50;;;16.25;;
64597;SDS011;51004;54.692;9.332;2023-02-28T09:39:04;26.88;;;15.75;;
64597;SDS011;51004;54.692;9.332;2023-02-28T09:41:37;27.02;;;15.75;;
64597;SDS011;51004;54.692;9.332;2023-02-28T09:44:05;27.63;;;15.85;;
64597;SDS011;51004;54.692;9.332;2023-02-28T09:46:34;28.65;;;14.30;;
64597;SDS011;51004;54.692;9.332;2023-02-28T09:49:04;21.23;;;13.00;;
64597;SDS011;51004;54.692;9.332;2023-02-28T09:51:51;23.27;;;14.27;;
64597;SDS011;51004;54.692;9.332;2023-02-28T09:54:20;20.05;;;12.00;;
64597;SDS011;51004;54.692;9.332;2023-02-28T09:56:51;17.83;;;10.35;;
64597;SDS011;51004;54.692;9.332;2023-02-28T09:59:29;18.60;;;9.80;;
64597;SDS011;51004;54.692;9.332;2023-02-28T10:02:00;15.55;;;10.95;;
64597;SDS011;51004;54.692;9.332;2023-02-28T10:04:41;15.80;;;9.95;;
64597;SDS011;51004;54.692;9.332;2023-02-28T10:07:15;15.10;;;8.80;;
64597;SDS011;51004;54.692;9.332;2023-02-28T10:09:43;13.73;;;9.50;;
64597;SDS011;51004;54.692;9.332;2023-02-28T10:12:10;13.82;;;9.15;;
64597;SDS011;51004;54.692;9.332;2023-02-28T10:14:37;13.75;;;9.15;;
64597;SDS011;51004;54.692;9.332;2023-02-28T10:17:08;12.07;;;8.48;;
64597;SDS011;51004;54.692;9.332;2023-02-28T10:19:55;14.13;;;8.25;;
64597;SDS011;51004;54.692;9.332;2023-02-28T10:22:26;15.82;;;8.65;;
64597;SDS011;51004;54.692;9.332;2023-02-28T10:24:55;13.23;;;8.43;;
64597;SDS011;51004;54.692;9.332;2023-02-28T10:27:26;13.48;;;7.90;;
64597;SDS011;51004;54.692;9.332;2023-02-28T10:29:55;15.60;;;8.82;;
64597;SDS011;51004;54.692;9.332;2023-02-28T10:32:25;13.07;;;8.90;;
64597;SDS011;51004;54.692;9.332;2023-02-28T10:34:55;16.25;;;9.32;;
64597;SDS011;51004;54.692;9.332;2023-02-28T10:37:22;15.32;;;8.85;;
64597;SDS011;51004;54.692;9.332;2023-02-28T10:39:48;12.65;;;8.35;;
64597;SDS011;51004;54.692;9.332;2023-02-28T10:42:28;13.65;;;8.75;;
64597;SDS011;51004;54.692;9.332;2023-02-28T10:47:48;12.30;;;9.32;;
64597;SDS011;51004;54.692;9.332;2023-02-28T10:52:53;12.25;;;9.23;;
64597;SDS011;51004;54.692;9.332;2023-02-28T10:55:20;14.02;;;9.02;;
64597;SDS011;51004;54.692;9.332;2023-02-28T10:57:47;14.20;;;9.05;;
64597;SDS011;51004;54.692;9.332;2023-02-28T11:00:17;14.00;;;8.70;;
64597;SDS011;51004;54.692;9.332;2023-02-28T11:02:44;14.85;;;8.30;;
64597;SDS011;51004;54.692;9.332;2023-02-28T11:08:16;11.90;;;8.00;;
64597;SDS011;51004;54.692;9.332;2023-02-28T11:10:46;13.88;;;7.40;;
64597;SDS011;51004;54.692;9.332;2023-02-28T11:13:19;11.80;;;6.68;;
64597;SDS011;51004;54.692;9.332;2023-02-28T11:15:50;9.85;;;6.65;;
64597;SDS011;51004;54.692;9.332;2023-02-28T11:18:21;10.98;;;6.68;;
64597;SDS011;51004;54.692;9.332;2023-02-28T11:20:49;11.25;;;6.32;;
64597;SDS011;51004;54.692;9.332;2023-02-28T11:23:15;9.70;;;6.22;;
64597;SDS011;51004;54.692;9.332;2023-02-28T11:25:47;12.45;;;7.05;;
64597;SDS011;51004;54.692;9.332;2023-02-28T11:28:24;10.40;;;6.78;;
64597;SDS011;51004;54.692;9.332;2023-02-28T11:31:02;15.75;;;6.68;;
64597;SDS011;51004;54.692;9.332;2023-02-28T11:33:29;11.98;;;6.85;;
64597;SDS011;51004;54.692;9.332;2023-02-28T11:36:03;10.57;;;5.72;;
64597;SDS011;51004;54.692;9.332;2023-02-28T11:38:29;9.10;;;6.07;;
64597;SDS011;51004;54.692;9.332;2023-02-28T11:41:02;11.55;;;7.28;;
64597;SDS011;51004;54.692;9.332;2023-02-28T11:48:57;12.40;;;6.63;;
64597;SDS011;51004;54.692;9.332;2023-02-28T11:51:27;11.13;;;7.32;;
64597;SDS011;51004;54.692;9.332;2023-02-28T11:56:54;10.82;;;6.85;;
64597;SDS011;51004;54.692;9.332;2023-02-28T12:02:13;11.73;;;7.10;;
64597;SDS011;51004;54.692;9.332;2023-02-28T12:07:23;10.32;;;6.38;;
64597;SDS011;51004;54.692;9.332;2023-02-28T12:10:35;12.98;;;6.85;;
64597;SDS011;51004;54.692;9.332;2023-02-28T12:25:43;8.43;;;6.20;;
64597;SDS011;51004;54.692;9.332;2023-02-28T12:28:13;11.85;;;6.35;;
64597;SDS011;51004;54.692;9.332;2023-02-28T12:30:50;9.85;;;6.18;;
64597;SDS011;51004;54.692;9.332;2023-02-28T12:33:20;10.77;;;6.95;;
64597;SDS011;51004;54.692;9.332;2023-02-28T12:35:56;8.32;;;6.57;;
64597;SDS011;51004;54.692;9.332;2023-02-28T12:38:24;9.77;;;6.88;;
64597;SDS011;51004;54.692;9.332;2023-02-28T12:43:17;8.20;;;6.00;;
64597;SDS011;51004;54.692;9.332;2023-02-28T12:48:14;8.88;;;6.22;;
64597;SDS011;51004;54.692;9.332;2023-02-28T12:50:40;10.10;;;6.47;;
64597;SDS011;51004;54.692;9.332;2023-02-28T12:53:14;9.82;;;6.35;;
64597;SDS011;51004;54.692;9.332;2023-02-28T12:55:54;8.65;;;5.50;;
64597;SDS011;51004;54.692;9.332;2023-02-28T13:06:41;9.15;;;5.70;;
64597;SDS011;51004;54.692;9.332;2023-02-28T13:09:11;14.65;;;6.55;;
64597;SDS011;51004;54.692;9.332;2023-02-28T13:11:39;9.23;;;6.22;;
64597;SDS011;51004;54.692;9.332;2023-02-28T13:14:22;11.75;;;6.15;;
64597;SDS011;51004;54.692;9.332;2023-02-28T13:16:59;9.32;;;6.15;;
64597;SDS011;51004;54.692;9.332;2023-02-28T13:19:27;8.93;;;5.28;;
64597;SDS011;51004;54.692;9.332;2023-02-28T13:21:55;7.43;;;5.47;;
64597;SDS011;51004;54.692;9.332;2023-02-28T13:24:56;10.38;;;6.25;;
64597;SDS011;51004;54.692;9.332;2023-02-28T13:29:42;8.45;;;6.25;;
64597;SDS011;51004;54.692;9.332;2023-02-28T13:34:42;9.60;;;5.50;;
64597;SDS011;51004;54.692;9.332;2023-02-28T13:39:47;7.35;;;4.95;;
64597;SDS011;51004;54.692;9.332;2023-02-28T13:45:34;7.55;;;5.32;;
64597;SDS011;51004;54.692;9.332;2023-02-28T13:50:21;8.23;;;5.55;;
64597;SDS011;51004;54.692;9.332;2023-02-28T13:55:38;8.65;;;5.50;;
64597;SDS011;51004;54.692;9.332;2023-02-28T13:58:09;9.40;;;5.57;;
64597;SDS011;51004;54.692;9.332;2023-02-28T14:01:00;11.30;;;5.97;;
64597;SDS011;51004;54.692;9.332;2023-02-28T14:06:08;7.55;;;6.15;;
64597;SDS011;51004;54.692;9.332;2023-02-28T14:08:35;7.57;;;5.70;;
64597;SDS011;51004;54.692;9.332;2023-02-28T14:11:03;7.47;;;5.38;;
64597;SDS011;51004;54.692;9.332;2023-02-28T14:13:40;12.25;;;5.80;;
64597;SDS011;51004;54.692;9.332;2023-02-28T14:16:10;8.20;;;5.55;;
64597;SDS011;51004;54.692;9.332;2023-02-28T14:18:37;6.65;;;4.55;;
64597;SDS011;51004;54.692;9.332;2023-02-28T14:31:23;8.98;;;6.50;;
64597;SDS011;51004;54.692;9.332;2023-02-28T14:36:36;11.98;;;6.85;;
64597;SDS011;51004;54.692;9.332;2023-02-28T14:39:06;8.57;;;6.22;;
64597;SDS011;51004;54.692;9.332;2023-02-28T14:41:33;9.68;;;6.43;;
64597;SDS011;51004;54.692;9.332;2023-02-28T14:44:02;8.85;;;6.18;;
64597;SDS011;51004;54.692;9.332;2023-02-28T14:46:38;7.47;;;6.00;;
64597;SDS011;51004;54.692;9.332;2023-02-28T14:49:05;9.30;;;7.00;;
64597;SDS011;51004;54.692;9.332;2023-02-28T14:51:35;9.88;;;6.85;;
64597;SDS011;51004;54.692;9.332;2023-02-28T14:54:01;14.05;;;7.38;;
64597;SDS011;51004;54.692;9.332;2023-02-28T14:56:30;9.85;;;6.68;;
64597;SDS011;51004;54.692;9.332;2023-02-28T14:58:58;11.43;;;6.88;;
64597;SDS011;51004;54.692;9.332;2023-02-28T15:01:24;11.27;;;6.65;;
64597;SDS011;51004;54.692;9.332;2023-02-28T15:03:58;9.20;;;7.00;;
64597;SDS011;51004;54.692;9.332;2023-02-28T15:06:26;11.13;;;6.95;;
64597;SDS011;51004;54.692;9.332;2023-02-28T15:09:09;11.15;;;7.30;;
64597;SDS011;51004;54.692;9.332;2023-02-28T15:11:35;12.18;;;8.32;;
64597;SDS011;51004;54.692;9.332;2023-02-28T15:14:02;13.57;;;8.07;;
64597;SDS011;51004;54.692;9.332;2023-02-28T15:16:30;11.65;;;8.48;;
64597;SDS011;51004;54.692;9.332;2023-02-28T15:19:01;15.25;;;9.38;;
64597;SDS011;51004;54.692;9.332;2023-02-28T15:21:29;19.88;;;10.18;;
64597;SDS011;51004;54.692;9.332;2023-02-28T15:23:58;16.55;;;8.57;;
64597;SDS011;51004;54.692;9.332;2023-02-28T15:26:26;17.65;;;10.63;;
64597;SDS011;51004;54.692;9.332;2023-02-28T15:28:54;10.32;;;8.13;;
64597;SDS011;51004;54.692;9.332;2023-02-28T15:31:26;11.52;;;7.70;;
64597;SDS011;51004;54.692;9.332;2023-02-28T15:33:53;16.83;;;10.52;;
64597;SDS011;51004;54.692;9.332;2023-02-28T15:36:19;13.80;;;8.18;;
64597;SDS011;51004;54.692;9.332;2023-02-28T15:38:50;12.95;;;7.72;;
64597;SDS011;51004;54.692;9.332;2023-02-28T15:41:30;10.25;;;6.75;;
64597;SDS011;51004;54.692;9.332;2023-02-28T15:46:41;12.65;;;7.75;;
64597;SDS011;51004;54.692;9.332;2023-02-28T15:49:13;9.90;;;7.63;;
64597;SDS011;51004;54.692;9.332;2023-02-28T15:51:43;15.88;;;8.57;;
64597;SDS011;51004;54.692;9.332;2023-02-28T15:54:12;10.50;;;8.38;;
64597;SDS011;51004;54.692;9.332;2023-02-28T15:56:44;12.35;;;8.70;;
64597;SDS011;51004;54.692;9.332;2023-02-28T15:59:15;12.95;;;8.63;;
64597;SDS011;51004;54.692;9.332;2023-02-28T16:01:43;9.98;;;7.68;;
64597;SDS011;51004;54.692;9.332;2023-02-28T16:04:14;11.13;;;8.13;;
64597;SDS011;51004;54.692;9.332;2023-02-28T16:06:41;12.35;;;8.05;;
64597;SDS011;51004;54.692;9.332;2023-02-28T16:09:08;9.95;;;7.45;;
64597;SDS011;51004;54.692;9.332;2023-02-28T16:11:37;10.77;;;7.20;;
64597;SDS011;51004;54.692;9.332;2023-02-28T16:14:03;12.43;;;7.85;;
64597;SDS011;51004;54.692;9.332;2023-02-28T16:16:31;13.05;;;8.05;;
64597;SDS011;51004;54.692;9.332;2023-02-28T16:18:57;15.30;;;7.70;;
64597;SDS011;51004;54.692;9.332;2023-02-28T16:21:24;13.57;;;8.27;;
64597;SDS011;51004;54.692;9.332;2023-02-28T16:23:50;11.25;;;7.10;;
64597;SDS011;51004;54.692;9.332;2023-02-28T16:26:21;15.57;;;7.65;;
64597;SDS011;51004;54.692;9.332;2023-02-28T16:28:48;15.70;;;8.25;;
64597;SDS011;51004;54.692;9.332;2023-02-28T16:31:14;13.95;;;8.30;;
64597;SDS011;51004;54.692;9.332;2023-02-28T16:33:41;13.02;;;7.97;;